Index of /manuals/Inspection Programs/AAIP/BK117/Section A/

NameLast ModifiedSize
UpParent Directory
DirectoryArchive2023-06-21 17:00-
FileA0030 - 50 hr 24 Mon.docx2023-06-21 16:46 38k
FileA0040 - 50 hr 24 Mon.docx2023-06-21 16:46 38k
FileA0050 - 50 hr 24 Mon.docx2023-06-21 16:47 39k
FileA0060 - 50 hr 24 Mon.docx2023-06-21 16:47 39k
FileA0070 - 50 hr 24 Mon.docx2023-06-21 16:47 39k
FileA0090 - 50 hr 24 Mon.docx2023-06-21 16:47 38k
FileA0100 - 50 hr 24 Mon.docx2023-06-21 16:47 38k
FileA0110 - 50 hr 24 Mon.docx2023-06-21 16:47 40k
FileA0120 - 50 hr 24 Mon.docx2023-06-21 16:47 38k
FileA0200 - 200 hr.docx2023-06-21 16:47 31k
FileA0624 - 600 hr 24 Mon.docx2023-06-21 16:47 56k
FileA1272 - 1200 hr 72 Mon.docx2023-06-21 16:47 29k
FileA1700 - 12 Mon.docx2023-06-21 16:47 39k
FileA6072 - 6000 hr 72 Mon.docx2023-06-21 16:47 50k
File~$000 - 50 hr 12 Mon Templet.docx2023-06-21 16:47 1k
File~$051 - 50 hr 12 Mon.docx2023-06-21 16:47 1k
File~$054 - 50 hr 12 Mon.docx2023-06-21 16:47 1k
File~$072 - 6000 hr 72 Mon.docx2023-06-21 16:47 1k
File~$350 - 300 hr 12 Mon Servicing.docx2023-06-21 16:47 1k
File~$670 - 600 hr 48 Mon.docx2023-06-21 16:47 1k
Proudly Served by LiteSpeed Web Server at www.mhi.rotor-apps.com Port 443